Time;durP1;ratioP1;P1;durP2;ratioP2;P2;SDS_P1;SDS_P2;PMS_P1;PMS_P2;Temp;Humidity;BMP_temperature;BMP_pressure;BME280_temperature;BME280_humidity;BME280_pressure;Samples;Min_cycle;Max_cycle;Signal;HPM_P1;HPM_P2
2022/08/16 00:02:21;;;;;;;2.55;1.80;;;;;;;19.88;nan;99764.03;5072537;28;20568;-66
2022/08/16 00:04:46;;;;;;;2.40;1.65;;;;;;;19.84;nan;99766.34;5074049;28;20045;-66
2022/08/16 00:07:12;;;;;;;2.58;1.75;;;;;;;19.82;nan;99764.94;5071776;28;20512;-66
2022/08/16 00:09:37;;;;;;;2.38;1.70;;;;;;;19.79;nan;99768.09;5070919;28;20045;-66
2022/08/16 00:12:03;;;;;;;2.33;1.80;;;;;;;19.76;nan;99774.72;5066125;28;20662;-66
2022/08/16 00:14:31;;;;;;;2.38;1.60;;;;;;;19.71;nan;99779.94;5066428;28;20064;-66
2022/08/16 00:16:57;;;;;;;2.22;1.60;;;;;;;19.66;nan;99769.91;5079311;28;20043;-66
2022/08/16 00:19:26;;;;;;;2.17;1.60;;;;;;;19.60;nan;99770.81;5074548;28;20052;-66
2022/08/16 00:21:53;;;;;;;2.72;1.85;;;;;;;19.51;nan;99774.84;5077709;28;20040;-64
2022/08/16 00:24:19;;;;;;;2.70;1.70;;;;;;;19.43;nan;99778.69;5077942;28;20078;-65
2022/08/16 00:26:44;;;;;;;2.72;1.92;;;;;;;19.40;nan;99784.53;5078985;28;20111;-64
2022/08/16 00:29:13;;;;;;;2.50;1.75;;;;;;;19.40;nan;99781.00;5080891;28;20036;-65
2022/08/16 00:31:38;;;;;;;2.75;1.95;;;;;;;19.40;nan;99778.31;5075053;28;20040;-65
2022/08/16 00:34:03;;;;;;;3.97;2.33;;;;;;;19.41;nan;99774.59;5074076;28;20574;-65
2022/08/16 00:36:29;;;;;;;2.55;2.13;;;;;;;19.41;nan;99783.47;5065695;28;20091;-65
2022/08/16 00:38:54;;;;;;;3.08;1.88;;;;;;;19.41;nan;99782.66;5068251;28;20029;-65
2022/08/16 00:41:19;;;;;;;2.53;2.20;;;;;;;19.33;nan;99780.28;5065150;28;20139;-65
2022/08/16 00:43:45;;;;;;;3.10;2.20;;;;;;;19.27;nan;99780.13;5072798;28;20048;-65
2022/08/16 00:46:19;;;;;;;2.58;2.20;;;;;;;19.24;nan;99777.09;5068270;28;20045;-65
2022/08/16 00:48:45;;;;;;;3.00;2.10;;;;;;;19.25;nan;99781.41;5073123;28;20505;-65
2022/08/16 00:51:13;;;;;;;3.20;2.20;;;;;;;19.25;nan;99782.22;5067510;28;20033;-65
2022/08/16 00:53:38;;;;;;;2.70;1.90;;;;;;;19.25;nan;99781.41;5067071;28;20489;-65
2022/08/16 00:56:08;;;;;;;2.30;1.92;;;;;;;19.26;nan;99772.34;5068914;28;20047;-64
2022/08/16 00:58:36;;;;;;;3.13;2.05;;;;;;;19.25;nan;99782.22;5060592;28;20032;-65
2022/08/16 01:01:03;;;;;;;2.85;2.13;;;;;;;19.26;nan;99775.03;5069362;28;20032;-65
2022/08/16 01:03:29;;;;;;;3.83;1.73;;;;;;;19.24;nan;99780.59;5070607;28;20045;-65
2022/08/16 01:05:55;;;;;;;2.40;1.80;;;;;;;19.24;nan;99777.09;5068451;28;20044;-65
2022/08/16 01:08:21;;;;;;;2.95;2.13;;;;;;;19.22;nan;99781.88;5071733;28;20060;-65
2022/08/16 01:10:48;;;;;;;3.58;1.95;;;;;;;19.18;nan;99786.84;5070452;28;20060;-65
2022/08/16 01:13:17;;;;;;;4.82;1.98;;;;;;;19.10;nan;99779.94;5072506;28;20090;-65
2022/08/16 01:15:47;;;;;;;2.45;1.65;;;;;;;19.08;nan;99781.22;5070742;28;20040;-65
2022/08/16 01:18:18;;;;;;;3.08;2.08;;;;;;;19.05;nan;99787.03;5080920;28;20029;-65
2022/08/16 01:20:49;;;;;;;;;;;;;;;19.02;nan;99790.16;5071819;28;20041;-65
2022/08/16 01:23:32;;;;;;;3.45;2.33;;;;;;;19.00;nan;99794.94;5070442;28;19930;-66
2022/08/16 01:25:58;;;;;;;3.35;2.45;;;;;;;18.98;nan;99792.47;5068820;28;20139;-66
2022/08/16 01:28:24;;;;;;;3.22;2.53;;;;;;;18.98;nan;99792.47;5069395;28;20580;-65
2022/08/16 01:30:55;;;;;;;4.13;2.55;;;;;;;18.98;nan;99797.84;5072540;28;20363;-66
2022/08/16 01:33:20;;;;;;;4.93;2.53;;;;;;;18.96;nan;99788.38;5070503;28;20132;-65
2022/08/16 01:35:48;;;;;;;5.40;2.90;;;;;;;18.95;nan;99789.41;5072170;28;20028;-66
2022/08/16 01:38:21;;;;;;;6.45;2.85;;;;;;;18.95;nan;99789.41;5072223;28;20040;-65
2022/08/16 01:40:49;;;;;;;4.63;3.00;;;;;;;18.93;nan;99791.53;5082978;28;20445;-65
2022/08/16 01:43:14;;;;;;;3.40;2.50;;;;;;;18.92;nan;99788.00;5070826;28;20041;-65
2022/08/16 01:45:40;;;;;;;3.72;2.50;;;;;;;18.92;nan;99789.88;5069703;28;20044;-65
2022/08/16 01:48:05;;;;;;;3.42;2.35;;;;;;;18.89;nan;99786.59;5067181;28;20518;-65
2022/08/16 01:50:32;;;;;;;2.90;2.22;;;;;;;18.88;nan;99782.28;5064006;28;20495;-66
2022/08/16 01:52:58;;;;;;;3.17;2.50;;;;;;;18.87;nan;99780.63;5066160;28;20039;-65
2022/08/16 01:55:23;;;;;;;3.20;2.25;;;;;;;18.82;nan;99785.03;5063904;28;20545;-66
2022/08/16 01:57:49;;;;;;;2.60;1.98;;;;;;;18.77;nan;99787.59;5068058;28;20036;-66
2022/08/16 02:00:16;;;;;;;2.90;2.05;;;;;;;18.72;nan;99788.22;5065616;28;20041;-66
2022/08/16 02:02:42;;;;;;;3.28;2.30;;;;;;;18.71;nan;99796.47;5071714;28;20082;-66
2022/08/16 02:05:09;;;;;;;3.92;2.35;;;;;;;18.69;nan;99788.66;5070879;28;20032;-66
2022/08/16 02:07:35;;;;;;;2.83;2.20;;;;;;;18.68;nan;99798.53;5065219;28;20123;-66
2022/08/16 02:10:01;;;;;;;3.40;2.65;;;;;;;18.67;nan;99796.09;5068538;28;20032;-66
2022/08/16 02:12:29;;;;;;;3.30;2.33;;;;;;;18.64;nan;99801.91;5069044;28;20036;-66
2022/08/16 02:14:55;;;;;;;3.33;2.17;;;;;;;18.58;nan;99794.75;5070461;28;20036;-66
2022/08/16 02:17:20;;;;;;;3.17;2.30;;;;;;;18.51;nan;99789.47;5068584;28;20550;-66
2022/08/16 02:19:48;;;;;;;2.50;2.00;;;;;;;18.47;nan;99785.59;5066854;28;20064;-66
2022/08/16 02:22:17;;;;;;;3.20;2.78;;;;;;;18.46;nan;99790.13;5066263;28;20032;-65
2022/08/16 02:24:44;;;;;;;3.55;2.47;;;;;;;18.45;nan;99777.78;5067425;28;20028;-65
2022/08/16 02:27:09;;;;;;;3.80;3.10;;;;;;;18.46;nan;99783.97;5060890;28;20036;-65
2022/08/16 02:29:34;;;;;;;3.75;3.00;;;;;;;18.47;nan;99780.22;5072489;28;20094;-65
2022/08/16 02:32:00;;;;;;;3.25;2.75;;;;;;;18.46;nan;99775.94;5068485;28;20033;-65
2022/08/16 02:34:25;;;;;;;4.80;3.15;;;;;;;18.41;nan;99776.59;5072977;28;20041;-66
2022/08/16 02:36:50;;;;;;;2.90;2.60;;;;;;;18.39;nan;99783.22;5071114;28;20528;-65
2022/08/16 02:39:18;;;;;;;3.92;2.80;;;;;;;18.37;nan;99780.75;5059507;28;20132;-65
2022/08/16 02:41:45;;;;;;;4.18;2.90;;;;;;;18.35;nan;99782.84;5065316;28;20098;-65
2022/08/16 02:44:11;;;;;;;3.10;2.78;;;;;;;18.32;nan;99783.28;5066077;28;20056;-66
2022/08/16 02:46:37;;;;;;;3.42;2.80;;;;;;;18.26;nan;99781.50;5081703;28;20496;-66
2022/08/16 02:49:03;;;;;;;3.58;2.70;;;;;;;18.24;nan;99781.69;5073516;28;20040;-66
2022/08/16 02:51:29;;;;;;;5.32;3.28;;;;;;;18.24;nan;99783.56;5070151;28;20039;-65
2022/08/16 02:53:54;;;;;;;3.53;3.10;;;;;;;18.25;nan;99780.66;5068117;28;20393;-65
2022/08/16 02:56:20;;;;;;;3.95;3.50;;;;;;;18.27;nan;99777.75;5061052;28;20151;-65
2022/08/16 02:58:48;;;;;;;3.88;2.78;;;;;;;18.27;nan;99775.09;5067336;28;20136;-65
2022/08/16 03:01:17;;;;;;;4.65;3.33;;;;;;;18.26;nan;99781.50;5067697;28;20566;-65
2022/08/16 03:03:42;;;;;;;3.13;2.60;;;;;;;18.24;nan;99772.88;5063913;28;20028;-66
2022/08/16 03:06:08;;;;;;;4.03;2.88;;;;;;;18.20;nan;99775.16;5069053;28;20382;-65
2022/08/16 03:08:33;;;;;;;3.55;2.78;;;;;;;18.16;nan;99779.31;5085101;28;20488;-66
2022/08/16 03:10:58;;;;;;;4.60;2.90;;;;;;;18.13;nan;99773.56;5071834;28;20668;-66
2022/08/16 03:13:23;;;;;;;3.25;2.80;;;;;;;18.18;nan;99771.06;5063083;28;20044;-65
2022/08/16 03:15:49;;;;;;;4.60;3.10;;;;;;;18.28;nan;99770.53;5067613;28;20045;-65
2022/08/16 03:18:14;;;;;;;4.45;3.38;;;;;;;18.31;nan;99768.25;5071618;28;20455;-65
2022/08/16 03:20:40;;;;;;;3.30;2.80;;;;;;;18.30;nan;99771.16;5073156;28;20083;-64
2022/08/16 03:23:06;;;;;;;4.28;3.30;;;;;;;18.26;nan;99765.44;5082969;28;20492;-65
2022/08/16 03:25:32;;;;;;;4.95;3.00;;;;;;;18.25;nan;99766.47;5069776;28;20044;-65
2022/08/16 03:27:58;;;;;;;4.78;3.10;;;;;;;18.23;nan;99761.34;5070390;28;20025;-65
2022/08/16 03:30:27;;;;;;;4.45;3.05;;;;;;;18.22;nan;99762.38;5067327;28;20046;-65
2022/08/16 03:32:53;;;;;;;3.72;3.08;;;;;;;18.22;nan;99769.59;5059596;28;20040;-65
2022/08/16 03:35:21;;;;;;;4.60;3.00;;;;;;;18.21;nan;99770.59;5068012;28;20040;-64
2022/08/16 03:37:48;;;;;;;6.65;3.03;;;;;;;18.15;nan;99763.47;5072265;28;20071;-65
2022/08/16 03:40:14;;;;;;;4.68;3.03;;;;;;;18.06;nan;99775.50;5068814;28;20032;-65
2022/08/16 03:42:40;;;;;;;3.65;2.90;;;;;;;17.98;nan;99764.03;5067784;28;20102;-65
2022/08/16 03:45:06;;;;;;;3.80;2.70;;;;;;;17.93;nan;99758.53;5062028;28;20436;-65
2022/08/16 03:47:32;;;;;;;4.35;3.13;;;;;;;17.87;nan;99758.56;5067351;28;20045;-65
2022/08/16 03:49:57;;;;;;;4.05;3.17;;;;;;;17.83;nan;99758.19;5067983;28;20106;-65
2022/08/16 03:52:23;;;;;;;2.80;2.50;;;;;;;17.80;nan;99754.09;5062944;28;20036;-65
2022/08/16 03:54:49;;;;;;;3.95;2.60;;;;;;;17.76;nan;99762.75;5064031;28;20044;-65
2022/08/16 03:57:15;;;;;;;3.00;2.55;;;;;;;17.73;nan;99763.16;5068519;28;20059;-65
2022/08/16 03:59:40;;;;;;;4.63;3.45;;;;;;;17.76;nan;99762.75;5073922;28;20036;-65
2022/08/16 04:02:06;;;;;;;6.50;3.35;;;;;;;17.77;nan;99764.38;5070489;28;20040;-65
2022/08/16 04:04:34;;;;;;;3.80;3.13;;;;;;;17.81;nan;99770.97;5062478;28;20037;-65
2022/08/16 04:07:02;;;;;;;3.63;2.65;;;;;;;17.85;nan;99766.00;5077742;28;20405;-64
2022/08/16 04:09:28;;;;;;;3.78;2.70;;;;;;;17.83;nan;99772.38;5075179;28;20102;-65
2022/08/16 04:11:53;;;;;;;3.70;3.20;;;;;;;17.77;nan;99769.72;5065395;28;20028;-65
2022/08/16 04:14:19;;;;;;;2.75;2.50;;;;;;;17.73;nan;99768.50;5064595;28;20037;-65
2022/08/16 04:16:44;;;;;;;4.32;3.00;;;;;;;17.69;nan;99770.81;5069067;28;20114;-65
2022/08/16 04:19:09;;;;;;;3.40;2.78;;;;;;;17.65;nan;99771.47;5076082;28;20035;-65
2022/08/16 04:21:35;;;;;;;4.72;3.40;;;;;;;17.60;nan;99774.78;5066691;28;20087;-65
2022/08/16 04:24:01;;;;;;;3.55;3.00;;;;;;;17.60;nan;99770.25;5077508;28;20020;-65
2022/08/16 04:26:27;;;;;;;3.05;2.70;;;;;;;17.59;nan;99767.78;5068186;28;20420;-65
2022/08/16 04:28:52;;;;;;;3.67;3.15;;;;;;;17.57;nan;99773.38;5066836;28;20033;-65
2022/08/16 04:31:18;;;;;;;4.35;3.53;;;;;;;17.56;nan;99773.56;5063252;28;20064;-65
2022/08/16 04:33:44;;;;;;;4.32;3.30;;;;;;;17.53;nan;99780.16;5071894;28;20593;-65
2022/08/16 04:36:09;;;;;;;4.40;3.22;;;;;;;17.53;nan;99777.50;5071997;28;20064;-64
2022/08/16 04:38:35;;;;;;;4.10;3.33;;;;;;;17.57;nan;99784.06;5082664;28;20032;-65
2022/08/16 04:41:00;;;;;;;3.85;3.22;;;;;;;17.63;nan;99783.19;5072304;28;20404;-64
2022/08/16 04:43:26;;;;;;;3.92;3.15;;;;;;;17.73;nan;99779.22;5072493;28;20033;-65
2022/08/16 04:45:51;;;;;;;3.50;2.90;;;;;;;17.84;nan;99783.91;5073357;28;20111;-65
2022/08/16 04:48:16;;;;;;;4.00;2.60;;;;;;;17.94;nan;99784.22;5070771;28;20407;-64
2022/08/16 04:50:42;;;;;;;3.60;3.08;;;;;;;18.02;nan;99792.00;5074074;28;20032;-64
2022/08/16 04:53:07;;;;;;;3.55;3.05;;;;;;;18.12;nan;99788.00;5071551;28;20119;-65
2022/08/16 04:55:33;;;;;;;3.45;3.08;;;;;;;18.19;nan;99788.75;5070637;28;20059;-65
2022/08/16 04:57:58;;;;;;;3.65;2.80;;;;;;;18.26;nan;99792.19;5071231;28;20032;-65
2022/08/16 05:00:32;;;;;;;4.53;2.97;;;;;;;18.32;nan;99798.53;5067048;28;20040;-65
2022/08/16 05:02:58;;;;;;;3.80;2.70;;;;;;;18.41;nan;99792.66;5072263;28;20040;-65
2022/08/16 05:05:23;;;;;;;2.67;2.47;;;;;;;18.53;nan;99802.66;5066138;28;20542;-65
2022/08/16 05:07:49;;;;;;;3.47;2.72;;;;;;;18.61;nan;99802.34;5064725;28;20037;-65
2022/08/16 05:10:15;;;;;;;3.92;3.00;;;;;;;18.67;nan;99798.78;5073699;28;20221;-65
2022/08/16 05:12:40;;;;;;;3.00;2.63;;;;;;;18.73;nan;99794.38;5065422;28;20069;-65
2022/08/16 05:15:07;;;;;;;4.35;3.10;;;;;;;18.82;nan;99799.25;5061120;28;20112;-65
2022/08/16 05:17:33;;;;;;;5.30;2.88;;;;;;;18.96;nan;99796.44;5069934;28;20131;-65
2022/08/16 05:19:58;;;;;;;3.63;2.75;;;;;;;19.08;nan;99798.13;5069959;28;20122;-65
2022/08/16 05:22:24;;;;;;;3.42;3.10;;;;;;;19.18;nan;99805.63;5072660;28;20043;-66
2022/08/16 05:24:49;;;;;;;4.55;3.78;;;;;;;19.25;nan;99813.59;5070815;28;20029;-65
2022/08/16 05:27:15;;;;;;;4.40;4.00;;;;;;;19.29;nan;99807.53;5072438;28;20063;-65
2022/08/16 05:29:41;;;;;;;3.97;3.58;;;;;;;19.36;nan;99820.06;5072501;28;20048;-65
2022/08/16 05:32:06;;;;;;;4.05;3.10;;;;;;;19.44;nan;99822.41;5063931;28;20040;-66
2022/08/16 05:34:31;;;;;;;3.20;2.63;;;;;;;19.62;nan;99824.22;5066805;28;20040;-65
2022/08/16 05:36:57;;;;;;;2.83;2.47;;;;;;;19.85;nan;99820.81;5068609;28;20617;-65
2022/08/16 05:39:24;;;;;;;3.35;2.58;;;;;;;20.04;nan;99826.91;5079285;28;20040;-65
2022/08/16 05:41:50;;;;;;;3.20;2.60;;;;;;;20.22;nan;99836.75;5071487;28;20032;-66
2022/08/16 05:44:17;;;;;;;3.58;3.08;;;;;;;20.33;nan;99831.38;5074408;28;20089;-65
2022/08/16 05:46:44;;;;;;;3.35;2.90;;;;;;;20.46;nan;99835.69;5069064;28;20036;-66
2022/08/16 05:49:12;;;;;;;4.65;2.65;;;;;;;20.58;nan;99833.84;5074140;28;20378;-66
2022/08/16 05:51:38;;;;;;;2.45;2.25;;;;;;;20.62;nan;99833.38;5064956;28;20028;-66
2022/08/16 05:54:04;;;;;;;3.35;2.63;;;;;;;20.59;nan;99834.66;5063345;28;20389;-65
2022/08/16 05:56:29;;;;;;;5.43;3.10;;;;;;;20.59;nan;99840.03;5067112;28;20049;-65
2022/08/16 05:58:54;;;;;;;4.22;2.95;;;;;;;20.68;nan;99837.81;5072737;28;20036;-65
2022/08/16 06:01:20;;;;;;;3.60;2.88;;;;;;;20.91;nan;99850.44;5070573;28;20029;-65
2022/08/16 06:03:45;;;;;;;6.63;4.32;;;;;;;20.98;nan;99837.66;5068216;28;20041;-65
2022/08/16 06:06:10;;;;;;;4.35;3.90;;;;;;;21.04;nan;99842.09;5070324;28;20039;-66
2022/08/16 06:08:36;;;;;;;4.38;2.80;;;;;;;21.14;nan;99849.53;5076949;28;20040;-66
2022/08/16 06:11:01;;;;;;;4.70;4.03;;;;;;;21.30;nan;99848.78;5065427;28;20087;-65
2022/08/16 06:13:27;;;;;;;3.70;3.22;;;;;;;21.45;nan;99850.19;5069198;28;20037;-66
2022/08/16 06:15:53;;;;;;;6.00;3.30;;;;;;;21.48;nan;99844.34;5066389;28;20412;-65
2022/08/16 06:18:18;;;;;;;4.13;3.20;;;;;;;21.49;nan;99838.69;5068359;28;20032;-65
2022/08/16 06:20:44;;;;;;;4.95;3.20;;;;;;;21.56;nan;99846.63;5063542;28;20097;-65
2022/08/16 06:23:09;;;;;;;4.28;2.65;;;;;;;21.74;nan;99851.81;5072001;28;20028;-65
2022/08/16 06:25:35;;;;;;;3.45;2.50;;;;;;;21.98;nan;99849.00;5069475;28;20086;-65
2022/08/16 06:28:00;;;;;;;5.28;2.67;;;;;;;22.11;nan;99845.97;5069043;28;20044;-65
2022/08/16 06:30:25;;;;;;;3.55;2.50;;;;;;;22.15;nan;99849.81;5062470;28;20058;-65
2022/08/16 06:32:51;;;;;;;4.40;2.65;;;;;;;22.14;nan;99848.16;5074734;28;20044;-65
2022/08/16 06:35:16;;;;;;;5.13;2.42;;;;;;;22.12;nan;99860.25;5065226;28;20032;-66
2022/08/16 06:37:42;;;;;;;3.22;2.65;;;;;;;22.26;nan;99853.50;5056801;28;20036;-66
2022/08/16 06:40:09;;;;;;;6.78;3.10;;;;;;;22.30;nan;99846.56;5062991;28;20115;-66
2022/08/16 06:42:35;;;;;;;3.85;3.05;;;;;;;22.48;nan;99838.22;5062359;28;20044;-66
2022/08/16 06:45:00;;;;;;;3.35;2.80;;;;;;;22.99;nan;99842.72;5068180;28;20050;-65
2022/08/16 06:47:25;;;;;;;3.47;2.70;;;;;;;23.52;nan;99855.47;5067939;28;20040;-66
2022/08/16 06:49:51;;;;;;;6.28;2.95;;;;;;;23.99;nan;99851.34;5068402;28;20128;-66
2022/08/16 06:52:16;;;;;;;4.50;3.13;;;;;;;24.46;nan;99857.94;5066685;28;20032;-66
2022/08/16 06:54:41;;;;;;;4.88;3.25;;;;;;;24.89;nan;99858.78;5066247;28;20045;-66
2022/08/16 06:57:09;;;;;;;3.30;2.88;;;;;;;25.17;nan;99860.22;5065678;28;20029;-66
2022/08/16 06:59:35;;;;;;;6.00;3.40;;;;;;;25.11;nan;99859.41;5066657;28;20042;-66
2022/08/16 07:02:00;;;;;;;5.25;3.50;;;;;;;24.93;nan;99862.56;5067638;28;20204;-66
2022/08/16 07:04:26;;;;;;;5.53;3.40;;;;;;;24.66;nan;99857.28;5061914;28;20486;-65
2022/08/16 07:06:51;;;;;;;4.45;3.50;;;;;;;24.32;nan;99868.38;5063081;28;20355;-66
2022/08/16 07:09:17;;;;;;;6.07;3.80;;;;;;;24.13;nan;99865.25;5067583;28;20098;-66
2022/08/16 07:11:42;;;;;;;3.92;3.22;;;;;;;24.12;nan;99869.00;5069643;28;20036;-66
2022/08/16 07:14:07;;;;;;;4.30;3.25;;;;;;;24.05;nan;99871.94;5071708;28;20401;-66
2022/08/16 07:16:33;;;;;;;5.55;3.80;;;;;;;23.95;nan;99874.53;5065635;28;20772;-66
2022/08/16 07:18:58;;;;;;;6.47;4.40;;;;;;;23.79;nan;99870.91;5068425;28;20040;-66
2022/08/16 07:21:24;;;;;;;6.30;3.95;;;;;;;23.76;nan;99871.38;5063118;28;20033;-66
2022/08/16 07:23:49;;;;;;;6.70;3.95;;;;;;;23.77;nan;99867.63;5067001;28;20093;-65
2022/08/16 07:26:21;;;;;;;5.63;3.70;;;;;;;23.66;nan;99866.69;5065545;28;20213;-66
2022/08/16 07:28:46;;;;;;;7.72;3.90;;;;;;;23.59;nan;99870.66;5065040;28;20033;-66
2022/08/16 07:31:12;;;;;;;4.70;3.70;;;;;;;23.65;nan;99883.16;5067712;28;20489;-66
2022/08/16 07:33:38;;;;;;;9.23;3.78;;;;;;;23.74;nan;99873.56;5075174;28;20040;-66
2022/08/16 07:36:05;;;;;;;6.63;3.92;;;;;;;23.84;nan;99873.66;5071767;28;20060;-66
2022/08/16 07:38:31;;;;;;;6.88;4.18;;;;;;;23.91;nan;99870.75;5070472;28;20332;-66
2022/08/16 07:40:56;;;;;;;4.43;3.83;;;;;;;24.05;nan;99873.81;5067176;28;20431;-65
2022/08/16 07:43:23;;;;;;;4.40;3.35;;;;;;;24.24;nan;99866.13;5068215;28;20031;-66
2022/08/16 07:45:49;;;;;;;6.10;3.53;;;;;;;24.52;nan;99870.44;5071416;28;20036;-66
2022/08/16 07:48:14;;;;;;;5.72;3.70;;;;;;;24.91;nan;99870.94;5074683;28;20123;-66
2022/08/16 07:50:41;;;;;;;6.50;3.33;;;;;;;25.11;nan;99862.09;5069519;28;20039;-66
2022/08/16 07:53:06;;;;;;;3.70;3.00;;;;;;;25.37;nan;99873.06;5066481;28;20799;-66
2022/08/16 07:55:32;;;;;;;4.18;2.95;;;;;;;25.70;nan;99869.09;5069907;28;20124;-66
2022/08/16 07:57:57;;;;;;;4.43;3.42;;;;;;;25.97;nan;99866.16;5065904;28;20120;-66
2022/08/16 08:00:23;;;;;;;3.78;3.13;;;;;;;26.36;nan;99872.94;5069554;28;20036;-66
2022/08/16 08:02:49;;;;;;;3.08;2.53;;;;;;;26.79;nan;99870.72;5062986;28;20071;-67
2022/08/16 08:05:15;;;;;;;3.72;2.60;;;;;;;27.26;nan;99866.78;5068844;28;20045;-66
2022/08/16 08:07:40;;;;;;;3.55;2.35;;;;;;;28.01;nan;99861.19;5069968;28;20161;-66
2022/08/16 08:10:06;;;;;;;4.40;2.75;;;;;;;28.61;nan;99877.25;5069055;28;20190;-66
2022/08/16 08:12:32;;;;;;;3.63;2.70;;;;;;;28.93;nan;99875.81;5062499;28;20328;-66
2022/08/16 08:14:57;;;;;;;5.40;3.47;;;;;;;28.71;nan;99881.78;5058383;28;20029;-66
2022/08/16 08:17:22;;;;;;;4.95;2.70;;;;;;;28.85;nan;99879.19;5070102;28;20126;-66
2022/08/16 08:19:48;;;;;;;4.15;2.60;;;;;;;29.26;nan;99881.44;5070132;28;20048;-66
2022/08/16 08:22:13;;;;;;;3.50;2.87;;;;;;;29.67;nan;99894.53;5070357;28;20523;-66
2022/08/16 08:24:39;;;;;;;3.35;2.25;;;;;;;30.34;nan;99900.59;5067208;28;20292;-66
2022/08/16 08:27:07;;;;;;;4.13;2.25;;;;;;;31.03;nan;99902.63;5071824;28;20040;-66
2022/08/16 08:29:34;;;;;;;5.05;2.88;;;;;;;31.43;nan;99886.53;5061886;28;20060;-66
2022/08/16 08:32:00;;;;;;;4.20;2.70;;;;;;;31.77;nan;99893.44;5065378;28;20537;-66
2022/08/16 08:34:25;;;;;;;4.13;2.95;;;;;;;32.27;nan;99898.81;5065846;28;20094;-66
2022/08/16 08:36:52;;;;;;;3.50;2.50;;;;;;;32.20;nan;99891.03;5068314;28;20097;-66
2022/08/16 08:39:17;;;;;;;4.63;2.53;;;;;;;32.41;nan;99896.00;5067483;28;20046;-66
2022/08/16 08:41:43;;;;;;;3.95;2.20;;;;;;;32.92;nan;99891.94;5070174;28;20028;-66
2022/08/16 08:44:12;;;;;;;3.55;2.22;;;;;;;33.11;nan;99898.00;5067172;28;20028;-66
2022/08/16 08:46:38;;;;;;;4.13;2.42;;;;;;;33.35;nan;99899.50;5071509;28;20142;-66
2022/08/16 08:49:04;;;;;;;5.63;2.45;;;;;;;33.44;nan;99897.56;5070522;28;20540;-66
2022/08/16 08:51:29;;;;;;;4.63;2.80;;;;;;;33.58;nan;99906.47;5070635;28;20127;-66
2022/08/16 08:53:55;;;;;;;3.15;2.33;;;;;;;34.02;nan;99910.03;5069436;28;20077;-67
2022/08/16 08:56:20;;;;;;;4.53;2.40;;;;;;;34.16;nan;99903.59;5074495;28;20049;-67
2022/08/16 08:58:46;;;;;;;6.88;2.95;;;;;;;34.41;nan;99905.47;5064304;28;20094;-67
2022/08/16 09:01:12;;;;;;;4.35;2.80;;;;;;;34.35;nan;99901.28;5067999;28;20036;-67
2022/08/16 09:03:38;;;;;;;4.85;2.50;;;;;;;34.86;nan;99906.97;5072605;28;20123;-67
2022/08/16 09:06:04;;;;;;;4.47;2.70;;;;;;;34.71;nan;99910.25;5068896;28;20040;-66
2022/08/16 09:08:31;;;;;;;3.58;2.30;;;;;;;34.80;nan;99903.59;5073359;28;20039;-66
2022/08/16 09:10:57;;;;;;;4.20;2.30;;;;;;;35.20;nan;99911.50;5076604;28;20036;-67
2022/08/16 09:13:24;;;;;;;3.70;2.50;;;;;;;36.00;nan;99902.34;5064046;28;20044;-67
2022/08/16 09:15:56;;;;;;;4.68;2.50;;;;;;;36.55;nan;99903.91;5070506;28;20036;-67
2022/08/16 09:18:22;;;;;;;4.20;2.60;;;;;;;36.70;nan;99905.22;5062618;28;20409;-68
2022/08/16 09:20:51;;;;;;;3.47;2.50;;;;;;;37.00;nan;99907.75;5067480;28;20040;-66
2022/08/16 09:23:16;;;;;;;3.58;2.75;;;;;;;36.88;nan;99908.56;5069292;28;20067;-67
2022/08/16 09:25:42;;;;;;;6.90;3.05;;;;;;;36.87;nan;99909.69;5067232;28;20068;-67
2022/08/16 09:28:07;;;;;;;5.22;2.55;;;;;;;36.87;nan;99906.94;5066417;28;20391;-67
2022/08/16 09:30:33;;;;;;;3.70;2.60;;;;;;;35.41;nan;99906.03;5063856;28;20052;-67
2022/08/16 09:33:00;;;;;;;4.32;2.70;;;;;;;34.36;nan;99894.66;5068618;28;20037;-67
2022/08/16 09:35:26;;;;;;;3.80;2.33;;;;;;;34.07;nan;99897.28;5073044;28;20040;-67
2022/08/16 09:37:51;;;;;;;5.38;2.40;;;;;;;33.46;nan;99892.56;5065307;28;20040;-67
2022/08/16 09:40:17;;;;;;;4.40;2.72;;;;;;;33.18;nan;99895.59;5067131;28;20090;-67
2022/08/16 09:42:42;;;;;;;6.03;3.20;;;;;;;32.78;nan;99897.53;5070245;28;20072;-66
2022/08/16 09:45:08;;;;;;;6.68;2.90;;;;;;;32.13;nan;99898.88;5071545;28;20036;-66
2022/08/16 09:47:39;;;;;;;3.78;2.83;;;;;;;31.83;nan;99895.75;5069256;28;20043;-66
2022/08/16 09:50:07;;;;;;;3.95;3.15;;;;;;;31.40;nan;99904.38;5063195;28;20033;-66
2022/08/16 09:52:34;;;;;;;4.55;3.10;;;;;;;32.75;nan;99892.66;5060651;28;20044;-66
2022/08/16 09:55:02;;;;;;;3.25;2.75;;;;;;;35.02;nan;99891.53;5068602;28;20039;-67
2022/08/16 09:57:27;;;;;;;3.92;3.10;;;;;;;35.93;nan;99894.63;5065234;28;20050;-67
2022/08/16 09:59:52;;;;;;;4.40;2.77;;;;;;;35.09;nan;99893.75;5074871;28;20032;-67
2022/08/16 10:02:17;;;;;;;4.75;2.80;;;;;;;34.53;nan;99898.50;5068649;28;20285;-66
2022/08/16 10:04:43;;;;;;;3.10;2.55;;;;;;;34.72;nan;99898.13;5065983;28;20067;-67
2022/08/16 10:07:08;;;;;;;3.63;2.35;;;;;;;34.98;nan;99889.78;5068025;28;20043;-67
2022/08/16 10:09:33;;;;;;;4.07;2.25;;;;;;;33.58;nan;99883.72;5067100;28;20070;-66
2022/08/16 10:14:42;;;;;;;3.15;2.38;;;;;;;32.07;nan;99890.00;5065737;28;20298;-66
2022/08/16 10:17:08;;;;;;;2.73;2.10;;;;;;;32.88;nan;99878.06;5066610;28;20048;-66
2022/08/16 10:19:33;;;;;;;3.05;2.28;;;;;;;34.72;nan;99885.19;5072809;28;20303;-67
2022/08/16 10:21:59;;;;;;;3.47;2.38;;;;;;;33.86;nan;99884.22;5069515;28;20036;-65
2022/08/16 10:24:25;;;;;;;3.08;2.00;;;;;;;34.14;nan;99883.91;5068826;28;20108;-65
2022/08/16 10:26:51;;;;;;;4.10;3.10;;;;;;;34.16;nan;99885.19;5068828;28;20048;-65
2022/08/16 10:29:17;;;;;;;4.32;3.50;;;;;;;33.66;nan;99885.69;5068985;28;20047;-65
2022/08/16 10:31:42;;;;;;;4.13;2.97;;;;;;;32.78;nan;99879.16;5063124;28;20033;-65
2022/08/16 10:34:08;;;;;;;6.07;3.42;;;;;;;31.76;nan;99876.22;5065938;28;20124;-66
2022/08/16 10:36:33;;;;;;;4.03;2.40;;;;;;;31.23;nan;99890.50;5069078;28;20037;-65
2022/08/16 10:38:59;;;;;;;3.33;2.55;;;;;;;30.81;nan;99889.66;5069674;28;20051;-65
2022/08/16 10:41:24;;;;;;;5.70;2.55;;;;;;;30.65;nan;99886.41;5070643;28;20037;-65
2022/08/16 10:43:50;;;;;;;3.63;2.43;;;;;;;32.92;nan;99889.19;5069226;28;20029;-65
2022/08/16 10:46:16;;;;;;;6.15;2.72;;;;;;;35.03;nan;99890.38;5069458;28;20798;-65
2022/08/16 10:48:43;;;;;;;4.82;2.67;;;;;;;36.00;nan;99883.09;5071105;28;20088;-65
2022/08/16 10:51:09;;;;;;;3.17;2.10;;;;;;;34.77;nan;99893.25;5060556;28;20665;-65
2022/08/16 10:53:35;;;;;;;2.97;2.35;;;;;;;33.49;nan;99878.22;5057758;28;20041;-64
2022/08/16 10:56:07;;;;;;;3.08;2.50;;;;;;;34.79;nan;99890.19;5063330;28;20489;-64
2022/08/16 10:58:33;;;;;;;3.85;2.60;;;;;;;36.54;nan;99794.91;5060784;28;20049;-65
2022/08/16 11:00:58;;;;;;;3.10;2.60;;;;;;;38.17;nan;99799.25;5061394;28;20408;-65
2022/08/16 11:03:26;;;;;;;4.10;2.53;;;;;;;37.70;nan;99801.94;5062092;28;20039;-65
2022/08/16 11:05:51;;;;;;;3.67;2.33;;;;;;;36.51;nan;99882.91;5065793;28;20126;-65
2022/08/16 11:08:16;;;;;;;2.50;2.30;;;;;;;35.05;nan;99873.56;5068848;28;20131;-65
2022/08/16 11:10:44;;;;;;;4.28;2.35;;;;;;;35.11;nan;99880.50;5062442;28;20511;-65
2022/08/16 11:13:16;;;;;;;2.30;1.80;;;;;;;36.77;nan;99899.13;5060529;28;20068;-65
2022/08/16 11:15:43;;;;;;;3.95;2.20;;;;;;;37.42;nan;99890.94;5060482;28;20501;-65
2022/08/16 11:18:10;;;;;;;2.25;1.80;;;;;;;36.75;nan;99882.13;5062566;28;20090;-66
2022/08/16 11:20:36;;;;;;;2.85;2.05;;;;;;;37.53;nan;99889.34;5059354;28;20098;-65
2022/08/16 11:23:02;;;;;;;3.13;1.70;;;;;;;39.57;nan;99885.50;5068015;28;20140;-65
2022/08/16 11:25:29;;;;;;;2.80;2.33;;;;;;;40.38;nan;99887.50;5061800;28;20054;-65
2022/08/16 11:27:57;;;;;;;2.30;1.75;;;;;;;40.84;nan;99895.00;5071007;28;20040;-65
2022/08/16 11:30:23;;;;;;;2.90;2.30;;;;;;;39.79;nan;99894.22;5066025;28;20090;-65
2022/08/16 11:32:49;;;;;;;2.92;2.25;;;;;;;37.73;nan;99889.50;5059648;28;20024;-65
2022/08/16 11:35:25;;;;;;;3.15;2.22;;;;;;;36.93;nan;99888.25;5062669;28;20519;-65
2022/08/16 11:37:55;;;;;;;4.03;2.75;;;;;;;37.60;nan;99877.72;5065104;28;20060;-65
2022/08/16 11:40:22;;;;;;;3.72;2.70;;;;;;;40.00;nan;99893.84;5070182;28;20489;-65
2022/08/16 11:42:47;;;;;;;4.85;2.50;;;;;;;41.56;nan;99888.53;5065771;28;20128;-65
2022/08/16 11:45:13;;;;;;;3.40;2.15;;;;;;;42.77;nan;99888.19;5063226;28;20120;-65
2022/08/16 11:47:39;;;;;;;3.45;2.17;;;;;;;43.60;nan;99889.47;5067655;28;20489;-66
2022/08/16 11:50:07;;;;;;;3.15;2.10;;;;;;;44.26;nan;99883.72;5062233;28;20028;-66